sensor_id;sensor_type;location;lat;lon;timestamp;P1;durP1;ratioP1;P2;durP2;ratioP2
10144;SDS011;5113;41.822;23.564;2023-03-01T00:01:29;11.07;;;4.67;;
10144;SDS011;5113;41.822;23.564;2023-03-01T00:04:36;10.30;;;6.53;;
10144;SDS011;5113;41.822;23.564;2023-03-01T00:07:42;11.87;;;5.93;;
10144;SDS011;5113;41.822;23.564;2023-03-01T00:10:48;9.83;;;5.93;;
10144;SDS011;5113;41.822;23.564;2023-03-01T00:13:57;4.13;;;3.80;;
10144;SDS011;5113;41.822;23.564;2023-03-01T00:17:05;5.67;;;2.23;;
10144;SDS011;5113;41.822;23.564;2023-03-01T00:20:12;3.07;;;2.77;;
10144;SDS011;5113;41.822;23.564;2023-03-01T00:23:18;6.40;;;5.37;;
10144;SDS011;5113;41.822;23.564;2023-03-01T00:26:26;5.70;;;4.10;;
10144;SDS011;5113;41.822;23.564;2023-03-01T00:29:34;4.10;;;2.73;;
10144;SDS011;5113;41.822;23.564;2023-03-01T00:32:40;1.70;;;1.70;;
10144;SDS011;5113;41.822;23.564;2023-03-01T00:35:46;2.90;;;2.30;;
10144;SDS011;5113;41.822;23.564;2023-03-01T00:38:52;64.63;;;21.53;;
10144;SDS011;5113;41.822;23.564;2023-03-01T00:41:59;38.50;;;18.83;;
10144;SDS011;5113;41.822;23.564;2023-03-01T00:45:07;8.20;;;6.53;;
10144;SDS011;5113;41.822;23.564;2023-03-01T00:48:14;3.50;;;3.20;;
10144;SDS011;5113;41.822;23.564;2023-03-01T00:51:21;13.13;;;7.03;;
10144;SDS011;5113;41.822;23.564;2023-03-01T00:54:29;6.03;;;3.40;;
10144;SDS011;5113;41.822;23.564;2023-03-01T00:57:36;2.93;;;2.60;;
10144;SDS011;5113;41.822;23.564;2023-03-01T01:00:43;3.67;;;2.60;;
10144;SDS011;5113;41.822;23.564;2023-03-01T01:03:50;8.20;;;3.27;;
10144;SDS011;5113;41.822;23.564;2023-03-01T01:06:58;3.53;;;3.17;;
10144;SDS011;5113;41.822;23.564;2023-03-01T01:10:05;3.53;;;3.13;;
10144;SDS011;5113;41.822;23.564;2023-03-01T01:13:12;3.17;;;2.80;;
10144;SDS011;5113;41.822;23.564;2023-03-01T01:16:21;5.30;;;2.50;;
10144;SDS011;5113;41.822;23.564;2023-03-01T01:19:29;2.57;;;2.33;;
10144;SDS011;5113;41.822;23.564;2023-03-01T01:22:35;5.17;;;3.70;;
10144;SDS011;5113;41.822;23.564;2023-03-01T01:25:41;2.43;;;2.20;;
10144;SDS011;5113;41.822;23.564;2023-03-01T01:28:48;2.43;;;2.23;;
10144;SDS011;5113;41.822;23.564;2023-03-01T01:31:56;4.40;;;2.80;;
10144;SDS011;5113;41.822;23.564;2023-03-01T01:35:03;3.10;;;2.80;;
10144;SDS011;5113;41.822;23.564;2023-03-01T01:38:09;3.07;;;2.77;;
10144;SDS011;5113;41.822;23.564;2023-03-01T01:41:16;3.13;;;2.30;;
10144;SDS011;5113;41.822;23.564;2023-03-01T01:44:23;2.87;;;2.67;;
10144;SDS011;5113;41.822;23.564;2023-03-01T01:47:31;2.73;;;2.53;;
10144;SDS011;5113;41.822;23.564;2023-03-01T01:50:38;3.00;;;2.37;;
10144;SDS011;5113;41.822;23.564;2023-03-01T01:53:46;1.33;;;1.33;;
10144;SDS011;5113;41.822;23.564;2023-03-01T01:56:57;2.30;;;2.10;;
10144;SDS011;5113;41.822;23.564;2023-03-01T02:00:07;1.80;;;1.70;;
10144;SDS011;5113;41.822;23.564;2023-03-01T02:03:18;3.20;;;1.73;;
10144;SDS011;5113;41.822;23.564;2023-03-01T02:06:31;2.00;;;1.90;;
10144;SDS011;5113;41.822;23.564;2023-03-01T02:09:41;4.60;;;2.10;;
10144;SDS011;5113;41.822;23.564;2023-03-01T02:12:49;2.43;;;2.33;;
10144;SDS011;5113;41.822;23.564;2023-03-01T02:15:57;3.57;;;2.60;;
10144;SDS011;5113;41.822;23.564;2023-03-01T02:19:04;3.67;;;2.57;;
10144;SDS011;5113;41.822;23.564;2023-03-01T02:22:14;7.03;;;4.13;;
10144;SDS011;5113;41.822;23.564;2023-03-01T02:25:30;1.70;;;1.70;;
10144;SDS011;5113;41.822;23.564;2023-03-01T02:28:44;1.83;;;1.53;;
10144;SDS011;5113;41.822;23.564;2023-03-01T02:31:52;1.30;;;1.30;;
10144;SDS011;5113;41.822;23.564;2023-03-01T02:35:01;1.63;;;1.63;;
10144;SDS011;5113;41.822;23.564;2023-03-01T02:38:10;2.00;;;1.90;;
10144;SDS011;5113;41.822;23.564;2023-03-01T02:41:17;1.77;;;1.67;;
10144;SDS011;5113;41.822;23.564;2023-03-01T02:44:27;2.00;;;1.90;;
10144;SDS011;5113;41.822;23.564;2023-03-01T02:47:33;2.27;;;2.07;;
10144;SDS011;5113;41.822;23.564;2023-03-01T02:50:44;3.03;;;2.43;;
10144;SDS011;5113;41.822;23.564;2023-03-01T02:54:02;3.73;;;2.63;;
10144;SDS011;5113;41.822;23.564;2023-03-01T02:57:17;8.13;;;2.73;;
10144;SDS011;5113;41.822;23.564;2023-03-01T03:00:28;2.47;;;2.27;;
10144;SDS011;5113;41.822;23.564;2023-03-01T03:03:38;2.50;;;2.33;;
10144;SDS011;5113;41.822;23.564;2023-03-01T03:06:45;1.60;;;1.50;;
10144;SDS011;5113;41.822;23.564;2023-03-01T03:09:52;1.93;;;1.83;;
10144;SDS011;5113;41.822;23.564;2023-03-01T03:12:59;1.80;;;1.80;;
10144;SDS011;5113;41.822;23.564;2023-03-01T03:16:08;2.30;;;2.07;;
10144;SDS011;5113;41.822;23.564;2023-03-01T03:19:15;2.83;;;1.97;;
10144;SDS011;5113;41.822;23.564;2023-03-01T03:22:22;5.47;;;2.33;;
10144;SDS011;5113;41.822;23.564;2023-03-01T03:25:29;1.80;;;1.70;;
10144;SDS011;5113;41.822;23.564;2023-03-01T03:28:35;1.57;;;1.47;;
10144;SDS011;5113;41.822;23.564;2023-03-01T03:31:45;2.50;;;2.30;;
10144;SDS011;5113;41.822;23.564;2023-03-01T03:34:52;1.93;;;1.90;;
10144;SDS011;5113;41.822;23.564;2023-03-01T03:37:58;3.27;;;2.73;;
10144;SDS011;5113;41.822;23.564;2023-03-01T03:41:11;8.23;;;2.87;;
10144;SDS011;5113;41.822;23.564;2023-03-01T03:44:17;5.43;;;3.33;;
10144;SDS011;5113;41.822;23.564;2023-03-01T03:47:43;4.30;;;2.73;;
10144;SDS011;5113;41.822;23.564;2023-03-01T03:50:50;3.63;;;3.33;;
10144;SDS011;5113;41.822;23.564;2023-03-01T03:53:57;9.30;;;6.43;;
10144;SDS011;5113;41.822;23.564;2023-03-01T03:57:03;4.53;;;4.10;;
10144;SDS011;5113;41.822;23.564;2023-03-01T04:00:28;3.50;;;3.20;;
10144;SDS011;5113;41.822;23.564;2023-03-01T04:03:35;3.43;;;3.23;;
10144;SDS011;5113;41.822;23.564;2023-03-01T04:06:42;3.80;;;3.50;;
10144;SDS011;5113;41.822;23.564;2023-03-01T04:09:48;4.10;;;3.70;;
10144;SDS011;5113;41.822;23.564;2023-03-01T04:12:54;7.07;;;4.13;;
10144;SDS011;5113;41.822;23.564;2023-03-01T04:16:01;6.97;;;5.20;;
10144;SDS011;5113;41.822;23.564;2023-03-01T04:19:09;4.10;;;3.60;;
10144;SDS011;5113;41.822;23.564;2023-03-01T04:22:15;4.77;;;3.60;;
10144;SDS011;5113;41.822;23.564;2023-03-01T04:25:21;13.07;;;6.30;;
10144;SDS011;5113;41.822;23.564;2023-03-01T04:28:28;18.23;;;10.23;;
10144;SDS011;5113;41.822;23.564;2023-03-01T04:31:37;17.23;;;11.07;;
10144;SDS011;5113;41.822;23.564;2023-03-01T04:34:44;13.00;;;8.77;;
10144;SDS011;5113;41.822;23.564;2023-03-01T04:37:51;9.97;;;6.97;;
10144;SDS011;5113;41.822;23.564;2023-03-01T04:40:57;22.80;;;15.00;;
10144;SDS011;5113;41.822;23.564;2023-03-01T04:44:03;20.70;;;15.37;;
10144;SDS011;5113;41.822;23.564;2023-03-01T04:47:10;11.90;;;9.77;;
10144;SDS011;5113;41.822;23.564;2023-03-01T04:50:18;7.60;;;6.20;;
10144;SDS011;5113;41.822;23.564;2023-03-01T04:53:25;6.13;;;5.53;;
10144;SDS011;5113;41.822;23.564;2023-03-01T04:56:31;16.23;;;10.47;;
10144;SDS011;5113;41.822;23.564;2023-03-01T04:59:37;13.17;;;7.87;;
10144;SDS011;5113;41.822;23.564;2023-03-01T05:02:44;9.40;;;7.37;;
10144;SDS011;5113;41.822;23.564;2023-03-01T05:05:52;13.77;;;7.47;;
10144;SDS011;5113;41.822;23.564;2023-03-01T05:08:58;9.97;;;7.07;;
10144;SDS011;5113;41.822;23.564;2023-03-01T05:12:05;10.13;;;7.17;;
10144;SDS011;5113;41.822;23.564;2023-03-01T05:15:11;13.40;;;8.37;;
10144;SDS011;5113;41.822;23.564;2023-03-01T05:18:18;10.73;;;8.60;;
10144;SDS011;5113;41.822;23.564;2023-03-01T05:21:25;13.93;;;10.30;;
10144;SDS011;5113;41.822;23.564;2023-03-01T05:24:33;15.57;;;9.27;;
10144;SDS011;5113;41.822;23.564;2023-03-01T05:27:40;14.30;;;10.53;;
10144;SDS011;5113;41.822;23.564;2023-03-01T05:30:47;13.27;;;9.63;;
10144;SDS011;5113;41.822;23.564;2023-03-01T05:33:56;12.53;;;8.43;;
10144;SDS011;5113;41.822;23.564;2023-03-01T05:37:04;12.53;;;7.50;;
10144;SDS011;5113;41.822;23.564;2023-03-01T05:40:13;15.80;;;10.33;;
10144;SDS011;5113;41.822;23.564;2023-03-01T05:43:20;20.63;;;13.73;;
10144;SDS011;5113;41.822;23.564;2023-03-01T05:46:27;15.07;;;13.43;;
10144;SDS011;5113;41.822;23.564;2023-03-01T05:49:34;9.20;;;8.23;;
10144;SDS011;5113;41.822;23.564;2023-03-01T05:52:44;15.23;;;9.67;;
10144;SDS011;5113;41.822;23.564;2023-03-01T05:55:53;17.43;;;10.17;;
10144;SDS011;5113;41.822;23.564;2023-03-01T05:58:59;23.03;;;11.90;;
10144;SDS011;5113;41.822;23.564;2023-03-01T06:02:05;26.83;;;17.50;;
10144;SDS011;5113;41.822;23.564;2023-03-01T06:05:12;34.50;;;17.60;;
10144;SDS011;5113;41.822;23.564;2023-03-01T06:08:21;22.50;;;13.90;;
10144;SDS011;5113;41.822;23.564;2023-03-01T06:11:28;35.60;;;19.30;;
10144;SDS011;5113;41.822;23.564;2023-03-01T06:14:35;27.80;;;15.17;;
10144;SDS011;5113;41.822;23.564;2023-03-01T06:17:42;29.10;;;14.17;;
10144;SDS011;5113;41.822;23.564;2023-03-01T06:20:52;30.17;;;16.07;;
10144;SDS011;5113;41.822;23.564;2023-03-01T06:24:00;19.33;;;11.30;;
10144;SDS011;5113;41.822;23.564;2023-03-01T06:27:07;18.80;;;11.03;;
10144;SDS011;5113;41.822;23.564;2023-03-01T06:30:13;22.57;;;10.40;;
10144;SDS011;5113;41.822;23.564;2023-03-01T06:33:21;20.47;;;10.67;;
10144;SDS011;5113;41.822;23.564;2023-03-01T06:36:28;14.20;;;10.47;;
10144;SDS011;5113;41.822;23.564;2023-03-01T06:39:36;18.83;;;13.20;;
10144;SDS011;5113;41.822;23.564;2023-03-01T06:42:47;20.07;;;11.40;;
10144;SDS011;5113;41.822;23.564;2023-03-01T06:45:55;27.73;;;14.50;;
10144;SDS011;5113;41.822;23.564;2023-03-01T06:49:01;44.17;;;22.63;;
10144;SDS011;5113;41.822;23.564;2023-03-01T06:52:08;43.77;;;21.53;;
10144;SDS011;5113;41.822;23.564;2023-03-01T06:55:16;49.13;;;27.53;;
10144;SDS011;5113;41.822;23.564;2023-03-01T06:58:23;34.10;;;18.97;;
10144;SDS011;5113;41.822;23.564;2023-03-01T07:01:30;34.70;;;20.23;;
10144;SDS011;5113;41.822;23.564;2023-03-01T07:04:36;50.27;;;27.77;;
10144;SDS011;5113;41.822;23.564;2023-03-01T07:07:43;43.60;;;22.10;;
10144;SDS011;5113;41.822;23.564;2023-03-01T07:10:55;32.90;;;18.97;;
10144;SDS011;5113;41.822;23.564;2023-03-01T07:14:01;25.93;;;13.10;;
10144;SDS011;5113;41.822;23.564;2023-03-01T07:17:08;29.37;;;16.10;;
10144;SDS011;5113;41.822;23.564;2023-03-01T07:20:14;27.77;;;18.20;;
10144;SDS011;5113;41.822;23.564;2023-03-01T07:23:21;26.10;;;15.17;;
10144;SDS011;5113;41.822;23.564;2023-03-01T07:26:28;21.57;;;12.67;;
10144;SDS011;5113;41.822;23.564;2023-03-01T07:29:35;21.90;;;13.40;;
10144;SDS011;5113;41.822;23.564;2023-03-01T07:32:42;16.77;;;8.40;;
10144;SDS011;5113;41.822;23.564;2023-03-01T07:35:55;4.97;;;4.47;;
10144;SDS011;5113;41.822;23.564;2023-03-01T07:39:02;7.63;;;6.03;;
10144;SDS011;5113;41.822;23.564;2023-03-01T07:42:10;7.27;;;5.87;;
10144;SDS011;5113;41.822;23.564;2023-03-01T07:45:16;13.67;;;10.37;;
10144;SDS011;5113;41.822;23.564;2023-03-01T07:48:23;5.70;;;5.10;;
10144;SDS011;5113;41.822;23.564;2023-03-01T07:51:29;13.27;;;4.90;;
10144;SDS011;5113;41.822;23.564;2023-03-01T07:54:35;7.03;;;4.47;;
10144;SDS011;5113;41.822;23.564;2023-03-01T07:57:42;4.20;;;3.80;;
10144;SDS011;5113;41.822;23.564;2023-03-01T08:00:49;6.80;;;4.87;;
10144;SDS011;5113;41.822;23.564;2023-03-01T08:03:55;7.80;;;4.50;;
10144;SDS011;5113;41.822;23.564;2023-03-01T08:07:04;7.13;;;5.87;;
10144;SDS011;5113;41.822;23.564;2023-03-01T08:10:11;10.80;;;6.63;;
10144;SDS011;5113;41.822;23.564;2023-03-01T08:13:19;7.60;;;5.87;;
10144;SDS011;5113;41.822;23.564;2023-03-01T08:16:26;9.53;;;6.10;;
10144;SDS011;5113;41.822;23.564;2023-03-01T08:19:34;9.93;;;7.30;;
10144;SDS011;5113;41.822;23.564;2023-03-01T08:22:40;8.53;;;7.30;;
10144;SDS011;5113;41.822;23.564;2023-03-01T08:25:47;13.73;;;9.20;;
10144;SDS011;5113;41.822;23.564;2023-03-01T08:28:55;17.90;;;10.43;;
10144;SDS011;5113;41.822;23.564;2023-03-01T08:32:01;15.30;;;9.93;;
10144;SDS011;5113;41.822;23.564;2023-03-01T08:35:08;14.77;;;8.97;;
10144;SDS011;5113;41.822;23.564;2023-03-01T08:38:14;10.00;;;7.67;;
10144;SDS011;5113;41.822;23.564;2023-03-01T08:41:21;7.77;;;5.30;;
10144;SDS011;5113;41.822;23.564;2023-03-01T08:44:29;4.80;;;4.40;;
10144;SDS011;5113;41.822;23.564;2023-03-01T08:47:36;18.63;;;12.03;;
10144;SDS011;5113;41.822;23.564;2023-03-01T08:50:42;17.53;;;9.70;;
10144;SDS011;5113;41.822;23.564;2023-03-01T08:53:49;17.57;;;11.60;;
10144;SDS011;5113;41.822;23.564;2023-03-01T08:56:55;8.37;;;5.33;;
10144;SDS011;5113;41.822;23.564;2023-03-01T09:00:05;3.80;;;3.50;;
10144;SDS011;5113;41.822;23.564;2023-03-01T09:03:14;3.70;;;2.80;;
10144;SDS011;5113;41.822;23.564;2023-03-01T09:06:20;9.20;;;6.63;;
10144;SDS011;5113;41.822;23.564;2023-03-01T09:09:27;3.50;;;3.20;;
10144;SDS011;5113;41.822;23.564;2023-03-01T09:12:51;3.17;;;2.77;;
10144;SDS011;5113;41.822;23.564;2023-03-01T09:16:00;8.73;;;5.63;;
10144;SDS011;5113;41.822;23.564;2023-03-01T09:19:07;4.03;;;3.73;;
10144;SDS011;5113;41.822;23.564;2023-03-01T09:22:14;15.73;;;6.53;;
10144;SDS011;5113;41.822;23.564;2023-03-01T09:25:20;8.43;;;5.67;;
10144;SDS011;5113;41.822;23.564;2023-03-01T09:28:26;22.57;;;14.57;;
10144;SDS011;5113;41.822;23.564;2023-03-01T09:31:35;6.87;;;5.40;;
10144;SDS011;5113;41.822;23.564;2023-03-01T09:34:41;6.17;;;4.53;;
10144;SDS011;5113;41.822;23.564;2023-03-01T09:38:09;9.83;;;5.90;;
10144;SDS011;5113;41.822;23.564;2023-03-01T09:41:20;5.57;;;3.90;;
10144;SDS011;5113;41.822;23.564;2023-03-01T09:44:38;5.13;;;3.60;;
10144;SDS011;5113;41.822;23.564;2023-03-01T09:47:53;4.97;;;4.53;;
10144;SDS011;5113;41.822;23.564;2023-03-01T09:51:00;5.63;;;4.60;;
10144;SDS011;5113;41.822;23.564;2023-03-01T09:54:12;9.33;;;6.50;;
10144;SDS011;5113;41.822;23.564;2023-03-01T09:57:19;18.33;;;11.47;;
10144;SDS011;5113;41.822;23.564;2023-03-01T10:00:33;16.73;;;8.53;;
10144;SDS011;5113;41.822;23.564;2023-03-01T10:03:49;4.10;;;3.73;;
10144;SDS011;5113;41.822;23.564;2023-03-01T10:07:11;6.00;;;3.80;;
10144;SDS011;5113;41.822;23.564;2023-03-01T10:10:28;6.73;;;4.70;;
10144;SDS011;5113;41.822;23.564;2023-03-01T10:13:42;3.77;;;3.17;;
10144;SDS011;5113;41.822;23.564;2023-03-01T10:16:54;3.17;;;2.87;;
10144;SDS011;5113;41.822;23.564;2023-03-01T10:20:17;11.30;;;7.50;;
10144;SDS011;5113;41.822;23.564;2023-03-01T10:23:26;5.67;;;4.53;;
10144;SDS011;5113;41.822;23.564;2023-03-01T10:26:40;6.00;;;4.33;;
10144;SDS011;5113;41.822;23.564;2023-03-01T10:29:54;4.83;;;4.00;;
10144;SDS011;5113;41.822;23.564;2023-03-01T10:33:10;10.20;;;5.23;;
10144;SDS011;5113;41.822;23.564;2023-03-01T10:36:24;6.23;;;3.83;;
10144;SDS011;5113;41.822;23.564;2023-03-01T10:39:30;4.53;;;3.50;;
10144;SDS011;5113;41.822;23.564;2023-03-01T10:42:39;3.77;;;3.30;;
10144;SDS011;5113;41.822;23.564;2023-03-01T10:45:52;7.87;;;5.07;;
10144;SDS011;5113;41.822;23.564;2023-03-01T10:49:07;16.60;;;11.60;;
10144;SDS011;5113;41.822;23.564;2023-03-01T10:52:21;8.33;;;5.57;;
10144;SDS011;5113;41.822;23.564;2023-03-01T10:55:31;3.77;;;3.43;;
10144;SDS011;5113;41.822;23.564;2023-03-01T10:58:41;5.00;;;3.80;;
10144;SDS011;5113;41.822;23.564;2023-03-01T11:02:14;6.37;;;5.37;;
10144;SDS011;5113;41.822;23.564;2023-03-01T11:05:29;20.57;;;12.93;;
10144;SDS011;5113;41.822;23.564;2023-03-01T11:08:41;9.23;;;6.10;;
10144;SDS011;5113;41.822;23.564;2023-03-01T11:11:51;4.67;;;4.10;;
10144;SDS011;5113;41.822;23.564;2023-03-01T11:14:59;6.67;;;4.13;;
10144;SDS011;5113;41.822;23.564;2023-03-01T11:18:17;6.27;;;4.30;;
10144;SDS011;5113;41.822;23.564;2023-03-01T11:21:38;4.03;;;3.40;;
10144;SDS011;5113;41.822;23.564;2023-03-01T11:24:51;6.40;;;3.60;;
10144;SDS011;5113;41.822;23.564;2023-03-01T11:28:14;12.47;;;6.00;;
10144;SDS011;5113;41.822;23.564;2023-03-01T11:31:23;5.13;;;3.80;;
10144;SDS011;5113;41.822;23.564;2023-03-01T11:34:36;9.97;;;7.87;;
10144;SDS011;5113;41.822;23.564;2023-03-01T11:37:52;5.90;;;4.83;;
10144;SDS011;5113;41.822;23.564;2023-03-01T11:41:07;4.90;;;4.40;;
10144;SDS011;5113;41.822;23.564;2023-03-01T11:44:20;5.00;;;4.53;;
10144;SDS011;5113;41.822;23.564;2023-03-01T11:47:33;4.67;;;3.37;;
10144;SDS011;5113;41.822;23.564;2023-03-01T11:50:51;13.80;;;7.10;;
10144;SDS011;5113;41.822;23.564;2023-03-01T11:54:06;11.53;;;7.30;;
10144;SDS011;5113;41.822;23.564;2023-03-01T11:57:26;14.03;;;6.93;;
10144;SDS011;5113;41.822;23.564;2023-03-01T12:00:52;6.63;;;5.90;;
10144;SDS011;5113;41.822;23.564;2023-03-01T12:04:17;6.63;;;4.27;;
10144;SDS011;5113;41.822;23.564;2023-03-01T12:07:37;13.97;;;8.07;;
10144;SDS011;5113;41.822;23.564;2023-03-01T12:10:56;8.47;;;5.90;;
10144;SDS011;5113;41.822;23.564;2023-03-01T12:14:17;11.97;;;7.83;;
10144;SDS011;5113;41.822;23.564;2023-03-01T12:17:44;8.13;;;5.13;;
10144;SDS011;5113;41.822;23.564;2023-03-01T12:21:06;14.10;;;5.07;;
10144;SDS011;5113;41.822;23.564;2023-03-01T12:24:35;9.60;;;7.23;;
10144;SDS011;5113;41.822;23.564;2023-03-01T12:28:00;8.80;;;5.20;;
10144;SDS011;5113;41.822;23.564;2023-03-01T12:35:01;7.27;;;5.67;;
10144;SDS011;5113;41.822;23.564;2023-03-01T12:38:22;8.27;;;7.47;;
10144;SDS011;5113;41.822;23.564;2023-03-01T12:41:51;16.03;;;8.93;;
10144;SDS011;5113;41.822;23.564;2023-03-01T12:45:16;22.37;;;13.00;;
10144;SDS011;5113;41.822;23.564;2023-03-01T12:48:43;33.57;;;16.50;;
10144;SDS011;5113;41.822;23.564;2023-03-01T12:51:57;18.27;;;10.50;;
10144;SDS011;5113;41.822;23.564;2023-03-01T12:55:08;12.03;;;7.77;;
10144;SDS011;5113;41.822;23.564;2023-03-01T12:58:27;10.10;;;6.73;;
10144;SDS011;5113;41.822;23.564;2023-03-01T13:01:53;11.23;;;7.53;;
10144;SDS011;5113;41.822;23.564;2023-03-01T13:05:16;13.40;;;8.33;;
10144;SDS011;5113;41.822;23.564;2023-03-01T13:08:31;12.17;;;9.97;;
10144;SDS011;5113;41.822;23.564;2023-03-01T13:11:46;12.00;;;9.50;;
10144;SDS011;5113;41.822;23.564;2023-03-01T13:14:53;13.03;;;9.43;;
10144;SDS011;5113;41.822;23.564;2023-03-01T13:18:00;8.40;;;6.00;;
10144;SDS011;5113;41.822;23.564;2023-03-01T13:21:10;7.00;;;5.87;;
10144;SDS011;5113;41.822;23.564;2023-03-01T13:24:26;22.60;;;10.80;;
10144;SDS011;5113;41.822;23.564;2023-03-01T13:27:35;18.77;;;10.10;;
10144;SDS011;5113;41.822;23.564;2023-03-01T13:30:41;9.37;;;6.63;;
10144;SDS011;5113;41.822;23.564;2023-03-01T13:33:48;12.30;;;8.43;;
10144;SDS011;5113;41.822;23.564;2023-03-01T13:36:58;7.57;;;6.00;;
10144;SDS011;5113;41.822;23.564;2023-03-01T13:44:12;8.57;;;6.53;;
10144;SDS011;5113;41.822;23.564;2023-03-01T13:47:19;15.23;;;10.07;;
10144;SDS011;5113;41.822;23.564;2023-03-01T13:50:28;20.00;;;10.97;;
10144;SDS011;5113;41.822;23.564;2023-03-01T13:53:40;8.97;;;6.37;;
10144;SDS011;5113;41.822;23.564;2023-03-01T13:56:49;11.20;;;8.40;;
10144;SDS011;5113;41.822;23.564;2023-03-01T13:59:55;35.50;;;19.17;;
10144;SDS011;5113;41.822;23.564;2023-03-01T14:03:02;15.77;;;12.60;;
10144;SDS011;5113;41.822;23.564;2023-03-01T14:06:12;12.13;;;7.23;;
10144;SDS011;5113;41.822;23.564;2023-03-01T14:09:25;11.13;;;7.57;;
10144;SDS011;5113;41.822;23.564;2023-03-01T14:12:39;22.13;;;13.90;;
10144;SDS011;5113;41.822;23.564;2023-03-01T14:15:56;38.30;;;16.03;;
10144;SDS011;5113;41.822;23.564;2023-03-01T14:19:16;18.87;;;9.87;;
10144;SDS011;5113;41.822;23.564;2023-03-01T14:22:37;11.67;;;8.57;;
10144;SDS011;5113;41.822;23.564;2023-03-01T14:25:49;22.27;;;12.13;;
10144;SDS011;5113;41.822;23.564;2023-03-01T14:28:57;11.97;;;7.83;;
10144;SDS011;5113;41.822;23.564;2023-03-01T14:32:08;13.17;;;9.57;;
10144;SDS011;5113;41.822;23.564;2023-03-01T14:35:19;25.10;;;15.37;;
10144;SDS011;5113;41.822;23.564;2023-03-01T14:38:29;18.67;;;11.93;;
10144;SDS011;5113;41.822;23.564;2023-03-01T14:41:40;18.23;;;11.03;;
10144;SDS011;5113;41.822;23.564;2023-03-01T14:44:47;16.73;;;11.03;;
10144;SDS011;5113;41.822;23.564;2023-03-01T14:47:58;44.07;;;24.83;;
10144;SDS011;5113;41.822;23.564;2023-03-01T14:51:07;16.30;;;10.40;;
10144;SDS011;5113;41.822;23.564;2023-03-01T14:54:19;47.07;;;22.43;;
10144;SDS011;5113;41.822;23.564;2023-03-01T14:57:29;38.43;;;17.90;;
10144;SDS011;5113;41.822;23.564;2023-03-01T15:00:36;27.60;;;15.17;;
10144;SDS011;5113;41.822;23.564;2023-03-01T15:03:44;40.70;;;23.23;;
10144;SDS011;5113;41.822;23.564;2023-03-01T15:06:52;31.70;;;16.53;;
10144;SDS011;5113;41.822;23.564;2023-03-01T15:10:00;39.30;;;17.37;;
10144;SDS011;5113;41.822;23.564;2023-03-01T15:13:14;18.17;;;11.10;;
10144;SDS011;5113;41.822;23.564;2023-03-01T15:16:27;30.67;;;16.73;;
10144;SDS011;5113;41.822;23.564;2023-03-01T15:19:36;19.87;;;12.07;;
10144;SDS011;5113;41.822;23.564;2023-03-01T15:22:43;28.57;;;17.53;;
10144;SDS011;5113;41.822;23.564;2023-03-01T15:25:53;28.03;;;14.10;;
10144;SDS011;5113;41.822;23.564;2023-03-01T15:29:03;49.07;;;24.73;;
10144;SDS011;5113;41.822;23.564;2023-03-01T15:32:22;43.77;;;22.53;;
10144;SDS011;5113;41.822;23.564;2023-03-01T15:35:40;53.60;;;28.20;;
10144;SDS011;5113;41.822;23.564;2023-03-01T15:38:51;46.00;;;24.50;;
10144;SDS011;5113;41.822;23.564;2023-03-01T15:41:59;17.67;;;10.47;;
10144;SDS011;5113;41.822;23.564;2023-03-01T15:45:10;17.10;;;11.67;;
10144;SDS011;5113;41.822;23.564;2023-03-01T15:48:26;14.20;;;11.13;;
10144;SDS011;5113;41.822;23.564;2023-03-01T15:51:34;20.23;;;12.63;;
10144;SDS011;5113;41.822;23.564;2023-03-01T15:54:41;23.43;;;15.27;;
10144;SDS011;5113;41.822;23.564;2023-03-01T15:57:48;29.37;;;19.17;;
10144;SDS011;5113;41.822;23.564;2023-03-01T16:00:57;21.80;;;15.07;;
10144;SDS011;5113;41.822;23.564;2023-03-01T16:04:06;20.47;;;14.27;;
10144;SDS011;5113;41.822;23.564;2023-03-01T16:07:12;16.87;;;13.43;;
10144;SDS011;5113;41.822;23.564;2023-03-01T16:10:19;14.13;;;10.77;;
10144;SDS011;5113;41.822;23.564;2023-03-01T16:13:26;12.97;;;10.80;;
10144;SDS011;5113;41.822;23.564;2023-03-01T16:16:34;14.47;;;9.50;;
10144;SDS011;5113;41.822;23.564;2023-03-01T16:19:41;24.43;;;15.23;;
10144;SDS011;5113;41.822;23.564;2023-03-01T16:22:47;20.80;;;14.40;;
10144;SDS011;5113;41.822;23.564;2023-03-01T16:25:54;27.20;;;13.57;;
10144;SDS011;5113;41.822;23.564;2023-03-01T16:29:04;47.33;;;24.37;;
10144;SDS011;5113;41.822;23.564;2023-03-01T16:32:13;33.13;;;18.97;;
10144;SDS011;5113;41.822;23.564;2023-03-01T16:35:20;33.73;;;21.97;;
10144;SDS011;5113;41.822;23.564;2023-03-01T16:38:28;34.67;;;18.63;;
10144;SDS011;5113;41.822;23.564;2023-03-01T16:41:37;30.17;;;18.77;;
10144;SDS011;5113;41.822;23.564;2023-03-01T16:44:43;33.40;;;16.73;;
10144;SDS011;5113;41.822;23.564;2023-03-01T16:47:51;37.50;;;20.50;;
10144;SDS011;5113;41.822;23.564;2023-03-01T16:50:59;26.40;;;17.27;;
10144;SDS011;5113;41.822;23.564;2023-03-01T16:54:06;46.37;;;23.90;;
10144;SDS011;5113;41.822;23.564;2023-03-01T16:57:13;39.90;;;26.17;;
10144;SDS011;5113;41.822;23.564;2023-03-01T17:00:20;37.23;;;20.73;;
10144;SDS011;5113;41.822;23.564;2023-03-01T17:03:28;34.70;;;20.23;;
10144;SDS011;5113;41.822;23.564;2023-03-01T17:06:35;41.27;;;25.17;;
10144;SDS011;5113;41.822;23.564;2023-03-01T17:09:42;37.37;;;21.40;;
10144;SDS011;5113;41.822;23.564;2023-03-01T17:12:48;41.93;;;24.90;;
10144;SDS011;5113;41.822;23.564;2023-03-01T17:15:55;36.30;;;20.73;;
10144;SDS011;5113;41.822;23.564;2023-03-01T17:19:02;29.07;;;15.90;;
10144;SDS011;5113;41.822;23.564;2023-03-01T17:22:09;32.27;;;16.93;;
10144;SDS011;5113;41.822;23.564;2023-03-01T17:25:17;34.37;;;20.17;;
10144;SDS011;5113;41.822;23.564;2023-03-01T17:28:26;20.63;;;13.20;;
10144;SDS011;5113;41.822;23.564;2023-03-01T17:31:36;17.73;;;12.03;;
10144;SDS011;5113;41.822;23.564;2023-03-01T17:34:43;19.70;;;12.80;;
10144;SDS011;5113;41.822;23.564;2023-03-01T17:37:50;25.13;;;16.10;;
10144;SDS011;5113;41.822;23.564;2023-03-01T17:40:58;24.20;;;14.80;;
10144;SDS011;5113;41.822;23.564;2023-03-01T17:44:05;26.20;;;15.40;;
10144;SDS011;5113;41.822;23.564;2023-03-01T17:47:12;22.33;;;13.60;;
10144;SDS011;5113;41.822;23.564;2023-03-01T17:50:20;22.63;;;13.57;;
10144;SDS011;5113;41.822;23.564;2023-03-01T17:53:26;24.43;;;15.17;;
10144;SDS011;5113;41.822;23.564;2023-03-01T17:56:33;26.00;;;12.73;;
10144;SDS011;5113;41.822;23.564;2023-03-01T17:59:42;30.47;;;17.07;;
10144;SDS011;5113;41.822;23.564;2023-03-01T18:02:48;27.57;;;15.80;;
10144;SDS011;5113;41.822;23.564;2023-03-01T18:05:56;31.60;;;17.10;;
10144;SDS011;5113;41.822;23.564;2023-03-01T18:09:03;25.70;;;16.17;;
10144;SDS011;5113;41.822;23.564;2023-03-01T18:12:09;23.77;;;15.93;;
10144;SDS011;5113;41.822;23.564;2023-03-01T18:15:16;23.23;;;13.97;;
10144;SDS011;5113;41.822;23.564;2023-03-01T18:18:24;22.27;;;12.13;;
10144;SDS011;5113;41.822;23.564;2023-03-01T18:21:31;36.67;;;18.97;;
10144;SDS011;5113;41.822;23.564;2023-03-01T18:24:38;45.63;;;23.10;;
10144;SDS011;5113;41.822;23.564;2023-03-01T18:27:45;50.13;;;28.57;;
10144;SDS011;5113;41.822;23.564;2023-03-01T18:30:54;32.70;;;19.63;;
10144;SDS011;5113;41.822;23.564;2023-03-01T18:34:02;36.30;;;20.27;;
10144;SDS011;5113;41.822;23.564;2023-03-01T18:37:09;35.27;;;19.10;;
10144;SDS011;5113;41.822;23.564;2023-03-01T18:40:16;43.17;;;23.53;;
10144;SDS011;5113;41.822;23.564;2023-03-01T18:43:23;30.50;;;18.97;;
10144;SDS011;5113;41.822;23.564;2023-03-01T18:46:32;31.03;;;19.47;;
10144;SDS011;5113;41.822;23.564;2023-03-01T18:49:41;54.83;;;38.67;;
10144;SDS011;5113;41.822;23.564;2023-03-01T18:52:49;33.80;;;22.70;;
10144;SDS011;5113;41.822;23.564;2023-03-01T18:55:58;36.83;;;20.53;;